sensor_id;sensor_type;location;lat;lon;timestamp;P1;durP1;ratioP1;P2;durP2;ratioP2
38615;SDS011;24370;51.986;4.666;2023-01-30T00:01:13;16.67;;;6.17;;
38615;SDS011;24370;51.986;4.666;2023-01-30T00:03:41;20.67;;;6.43;;
38615;SDS011;24370;51.986;4.666;2023-01-30T00:06:06;15.50;;;6.00;;
38615;SDS011;24370;51.986;4.666;2023-01-30T00:08:32;13.70;;;6.70;;
38615;SDS011;24370;51.986;4.666;2023-01-30T00:10:57;20.23;;;7.13;;
38615;SDS011;24370;51.986;4.666;2023-01-30T00:13:27;20.23;;;6.30;;
38615;SDS011;24370;51.986;4.666;2023-01-30T00:15:53;14.20;;;6.07;;
38615;SDS011;24370;51.986;4.666;2023-01-30T00:18:18;13.03;;;6.10;;
38615;SDS011;24370;51.986;4.666;2023-01-30T00:20:43;13.67;;;5.90;;
38615;SDS011;24370;51.986;4.666;2023-01-30T00:23:09;21.27;;;6.17;;
38615;SDS011;24370;51.986;4.666;2023-01-30T00:25:34;22.03;;;6.70;;
38615;SDS011;24370;51.986;4.666;2023-01-30T00:28:00;20.30;;;6.33;;
38615;SDS011;24370;51.986;4.666;2023-01-30T00:30:25;11.33;;;4.83;;
38615;SDS011;24370;51.986;4.666;2023-01-30T00:32:54;15.17;;;6.20;;
38615;SDS011;24370;51.986;4.666;2023-01-30T00:35:21;10.47;;;5.43;;
38615;SDS011;24370;51.986;4.666;2023-01-30T00:37:52;12.97;;;6.97;;
38615;SDS011;24370;51.986;4.666;2023-01-30T00:40:18;19.70;;;5.80;;
38615;SDS011;24370;51.986;4.666;2023-01-30T00:42:44;15.57;;;5.60;;
38615;SDS011;24370;51.986;4.666;2023-01-30T00:45:28;11.27;;;4.50;;
38615;SDS011;24370;51.986;4.666;2023-01-30T00:48:12;15.53;;;5.30;;
38615;SDS011;24370;51.986;4.666;2023-01-30T00:50:37;14.20;;;5.10;;
38615;SDS011;24370;51.986;4.666;2023-01-30T00:53:09;13.80;;;4.97;;
38615;SDS011;24370;51.986;4.666;2023-01-30T00:55:39;24.60;;;4.97;;
38615;SDS011;24370;51.986;4.666;2023-01-30T00:58:04;16.33;;;4.97;;
38615;SDS011;24370;51.986;4.666;2023-01-30T01:00:30;14.27;;;5.03;;
38615;SDS011;24370;51.986;4.666;2023-01-30T01:02:56;14.20;;;4.53;;
38615;SDS011;24370;51.986;4.666;2023-01-30T01:05:22;17.33;;;4.87;;
38615;SDS011;24370;51.986;4.666;2023-01-30T01:07:47;17.83;;;4.43;;
38615;SDS011;24370;51.986;4.666;2023-01-30T01:10:13;16.57;;;4.53;;
38615;SDS011;24370;51.986;4.666;2023-01-30T01:12:43;16.70;;;5.47;;
38615;SDS011;24370;51.986;4.666;2023-01-30T01:15:13;17.03;;;4.80;;
38615;SDS011;24370;51.986;4.666;2023-01-30T01:17:39;17.77;;;5.20;;
38615;SDS011;24370;51.986;4.666;2023-01-30T01:20:06;15.90;;;5.13;;
38615;SDS011;24370;51.986;4.666;2023-01-30T01:22:32;16.70;;;5.90;;
38615;SDS011;24370;51.986;4.666;2023-01-30T01:24:57;20.93;;;5.00;;
38615;SDS011;24370;51.986;4.666;2023-01-30T01:27:23;15.83;;;4.50;;
38615;SDS011;24370;51.986;4.666;2023-01-30T01:29:48;15.43;;;4.13;;
38615;SDS011;24370;51.986;4.666;2023-01-30T01:32:13;13.60;;;3.77;;
38615;SDS011;24370;51.986;4.666;2023-01-30T01:34:39;16.40;;;4.13;;
38615;SDS011;24370;51.986;4.666;2023-01-30T01:37:04;20.63;;;4.57;;
38615;SDS011;24370;51.986;4.666;2023-01-30T01:39:29;15.10;;;3.60;;
38615;SDS011;24370;51.986;4.666;2023-01-30T01:42:14;11.27;;;4.30;;
38615;SDS011;24370;51.986;4.666;2023-01-30T01:47:58;11.13;;;3.40;;
38615;SDS011;24370;51.986;4.666;2023-01-30T01:50:30;11.90;;;3.45;;
38615;SDS011;24370;51.986;4.666;2023-01-30T01:53:04;19.87;;;4.10;;
38615;SDS011;24370;51.986;4.666;2023-01-30T01:55:31;15.27;;;3.67;;
38615;SDS011;24370;51.986;4.666;2023-01-30T01:58:19;15.73;;;3.13;;
38615;SDS011;24370;51.986;4.666;2023-01-30T02:00:46;14.67;;;3.40;;
38615;SDS011;24370;51.986;4.666;2023-01-30T02:03:16;15.40;;;3.70;;
38615;SDS011;24370;51.986;4.666;2023-01-30T02:05:46;18.98;;;3.63;;
38615;SDS011;24370;51.986;4.666;2023-01-30T02:08:19;14.37;;;3.40;;
38615;SDS011;24370;51.986;4.666;2023-01-30T02:11:08;13.17;;;3.67;;
38615;SDS011;24370;51.986;4.666;2023-01-30T02:13:38;8.77;;;2.93;;
38615;SDS011;24370;51.986;4.666;2023-01-30T02:16:04;12.27;;;3.50;;
38615;SDS011;24370;51.986;4.666;2023-01-30T02:18:31;14.70;;;3.33;;
38615;SDS011;24370;51.986;4.666;2023-01-30T02:29:22;13.03;;;3.57;;
38615;SDS011;24370;51.986;4.666;2023-01-30T02:38:15;12.40;;;2.87;;
38615;SDS011;24370;51.986;4.666;2023-01-30T02:49:22;19.30;;;3.77;;
38615;SDS011;24370;51.986;4.666;2023-01-30T02:52:04;12.67;;;3.30;;
38615;SDS011;24370;51.986;4.666;2023-01-30T02:54:32;17.83;;;2.70;;
38615;SDS011;24370;51.986;4.666;2023-01-30T02:56:57;11.33;;;2.87;;
38615;SDS011;24370;51.986;4.666;2023-01-30T02:59:38;14.40;;;3.20;;
38615;SDS011;24370;51.986;4.666;2023-01-30T03:07:58;15.73;;;3.97;;
38615;SDS011;24370;51.986;4.666;2023-01-30T03:13:25;9.93;;;3.13;;
38615;SDS011;24370;51.986;4.666;2023-01-30T03:18:29;12.67;;;3.53;;
38615;SDS011;24370;51.986;4.666;2023-01-30T03:20:54;19.37;;;3.43;;
38615;SDS011;24370;51.986;4.666;2023-01-30T03:23:20;15.47;;;4.43;;
38615;SDS011;24370;51.986;4.666;2023-01-30T03:25:45;16.60;;;3.03;;
38615;SDS011;24370;51.986;4.666;2023-01-30T03:28:13;18.23;;;4.00;;
38615;SDS011;24370;51.986;4.666;2023-01-30T03:30:42;20.03;;;3.33;;
38615;SDS011;24370;51.986;4.666;2023-01-30T03:33:08;13.17;;;4.37;;
38615;SDS011;24370;51.986;4.666;2023-01-30T03:35:34;16.27;;;3.30;;
38615;SDS011;24370;51.986;4.666;2023-01-30T03:38:00;13.40;;;3.10;;
38615;SDS011;24370;51.986;4.666;2023-01-30T03:40:25;23.43;;;3.80;;
38615;SDS011;24370;51.986;4.666;2023-01-30T03:42:51;11.20;;;2.90;;
38615;SDS011;24370;51.986;4.666;2023-01-30T03:45:16;13.50;;;2.97;;
38615;SDS011;24370;51.986;4.666;2023-01-30T03:47:42;13.03;;;2.47;;
38615;SDS011;24370;51.986;4.666;2023-01-30T03:50:07;19.17;;;2.97;;
38615;SDS011;24370;51.986;4.666;2023-01-30T03:52:34;12.97;;;3.20;;
38615;SDS011;24370;51.986;4.666;2023-01-30T03:55:00;14.37;;;2.97;;
38615;SDS011;24370;51.986;4.666;2023-01-30T03:57:25;15.83;;;2.57;;
38615;SDS011;24370;51.986;4.666;2023-01-30T03:59:51;12.53;;;3.23;;
38615;SDS011;24370;51.986;4.666;2023-01-30T04:02:16;10.80;;;3.60;;
38615;SDS011;24370;51.986;4.666;2023-01-30T04:04:46;14.03;;;2.90;;
38615;SDS011;24370;51.986;4.666;2023-01-30T04:07:12;16.43;;;3.20;;
38615;SDS011;24370;51.986;4.666;2023-01-30T04:09:38;16.77;;;2.97;;
38615;SDS011;24370;51.986;4.666;2023-01-30T04:12:03;12.53;;;4.17;;
38615;SDS011;24370;51.986;4.666;2023-01-30T04:14:29;13.57;;;4.20;;
38615;SDS011;24370;51.986;4.666;2023-01-30T04:16:54;16.97;;;4.87;;
38615;SDS011;24370;51.986;4.666;2023-01-30T04:19:19;17.73;;;3.67;;
38615;SDS011;24370;51.986;4.666;2023-01-30T04:21:45;13.10;;;3.30;;
38615;SDS011;24370;51.986;4.666;2023-01-30T04:24:10;9.17;;;2.50;;
38615;SDS011;24370;51.986;4.666;2023-01-30T04:26:36;14.03;;;3.77;;
38615;SDS011;24370;51.986;4.666;2023-01-30T04:29:01;14.93;;;2.83;;
38615;SDS011;24370;51.986;4.666;2023-01-30T04:31:27;15.13;;;3.33;;
38615;SDS011;24370;51.986;4.666;2023-01-30T04:33:52;18.97;;;3.43;;
38615;SDS011;24370;51.986;4.666;2023-01-30T04:36:17;18.33;;;3.27;;
38615;SDS011;24370;51.986;4.666;2023-01-30T04:38:43;17.67;;;3.47;;
38615;SDS011;24370;51.986;4.666;2023-01-30T04:41:08;12.80;;;2.97;;
38615;SDS011;24370;51.986;4.666;2023-01-30T04:43:34;12.97;;;3.10;;
38615;SDS011;24370;51.986;4.666;2023-01-30T04:45:59;8.23;;;2.23;;
38615;SDS011;24370;51.986;4.666;2023-01-30T04:48:24;11.60;;;2.70;;
38615;SDS011;24370;51.986;4.666;2023-01-30T04:50:51;10.93;;;2.00;;
38615;SDS011;24370;51.986;4.666;2023-01-30T04:53:18;6.97;;;2.03;;
38615;SDS011;24370;51.986;4.666;2023-01-30T04:55:44;9.03;;;2.37;;
38615;SDS011;24370;51.986;4.666;2023-01-30T04:58:10;6.17;;;1.60;;
38615;SDS011;24370;51.986;4.666;2023-01-30T05:00:36;7.00;;;1.60;;
38615;SDS011;24370;51.986;4.666;2023-01-30T05:03:02;5.33;;;1.40;;
38615;SDS011;24370;51.986;4.666;2023-01-30T05:05:28;13.20;;;2.90;;
38615;SDS011;24370;51.986;4.666;2023-01-30T05:07:53;8.90;;;2.07;;
38615;SDS011;24370;51.986;4.666;2023-01-30T05:10:19;10.23;;;2.30;;
38615;SDS011;24370;51.986;4.666;2023-01-30T05:12:45;10.93;;;2.80;;
38615;SDS011;24370;51.986;4.666;2023-01-30T05:15:11;10.63;;;2.10;;
38615;SDS011;24370;51.986;4.666;2023-01-30T05:17:37;10.90;;;1.93;;
38615;SDS011;24370;51.986;4.666;2023-01-30T05:20:05;12.17;;;2.53;;
38615;SDS011;24370;51.986;4.666;2023-01-30T05:22:32;14.83;;;3.67;;
38615;SDS011;24370;51.986;4.666;2023-01-30T05:24:57;20.37;;;2.60;;
38615;SDS011;24370;51.986;4.666;2023-01-30T05:27:23;13.10;;;3.17;;
38615;SDS011;24370;51.986;4.666;2023-01-30T05:29:48;15.17;;;2.47;;
38615;SDS011;24370;51.986;4.666;2023-01-30T05:32:14;13.67;;;2.10;;
38615;SDS011;24370;51.986;4.666;2023-01-30T05:34:40;15.93;;;2.70;;
38615;SDS011;24370;51.986;4.666;2023-01-30T05:37:06;13.83;;;2.13;;
38615;SDS011;24370;51.986;4.666;2023-01-30T05:39:31;10.07;;;2.00;;
38615;SDS011;24370;51.986;4.666;2023-01-30T05:41:57;14.43;;;3.80;;
38615;SDS011;24370;51.986;4.666;2023-01-30T05:44:22;12.43;;;2.00;;
38615;SDS011;24370;51.986;4.666;2023-01-30T05:46:48;14.20;;;3.07;;
38615;SDS011;24370;51.986;4.666;2023-01-30T05:49:13;11.33;;;2.90;;
38615;SDS011;24370;51.986;4.666;2023-01-30T05:51:39;20.10;;;3.20;;
38615;SDS011;24370;51.986;4.666;2023-01-30T05:54:04;18.43;;;3.37;;
38615;SDS011;24370;51.986;4.666;2023-01-30T05:56:30;15.30;;;3.07;;
38615;SDS011;24370;51.986;4.666;2023-01-30T05:58:57;11.40;;;2.40;;
38615;SDS011;24370;51.986;4.666;2023-01-30T06:01:24;21.90;;;3.07;;
38615;SDS011;24370;51.986;4.666;2023-01-30T06:03:50;21.10;;;3.67;;
38615;SDS011;24370;51.986;4.666;2023-01-30T06:06:16;15.13;;;2.77;;
38615;SDS011;24370;51.986;4.666;2023-01-30T06:08:41;26.67;;;2.93;;
38615;SDS011;24370;51.986;4.666;2023-01-30T06:11:08;15.93;;;3.20;;
38615;SDS011;24370;51.986;4.666;2023-01-30T06:13:43;28.67;;;3.70;;
38615;SDS011;24370;51.986;4.666;2023-01-30T06:16:12;23.67;;;3.67;;
38615;SDS011;24370;51.986;4.666;2023-01-30T06:18:39;12.23;;;2.93;;
38615;SDS011;24370;51.986;4.666;2023-01-30T06:21:04;34.00;;;4.47;;
38615;SDS011;24370;51.986;4.666;2023-01-30T06:23:30;26.07;;;3.67;;
38615;SDS011;24370;51.986;4.666;2023-01-30T06:25:56;23.93;;;3.40;;
38615;SDS011;24370;51.986;4.666;2023-01-30T06:28:22;19.07;;;2.37;;
38615;SDS011;24370;51.986;4.666;2023-01-30T06:30:48;20.90;;;3.87;;
38615;SDS011;24370;51.986;4.666;2023-01-30T06:33:14;13.87;;;3.00;;
38615;SDS011;24370;51.986;4.666;2023-01-30T06:35:40;15.57;;;2.60;;
38615;SDS011;24370;51.986;4.666;2023-01-30T06:38:06;22.97;;;2.23;;
38615;SDS011;24370;51.986;4.666;2023-01-30T06:40:37;21.00;;;3.47;;
38615;SDS011;24370;51.986;4.666;2023-01-30T06:43:03;20.00;;;2.97;;
38615;SDS011;24370;51.986;4.666;2023-01-30T06:45:28;30.47;;;4.37;;
38615;SDS011;24370;51.986;4.666;2023-01-30T06:47:54;29.43;;;3.50;;
38615;SDS011;24370;51.986;4.666;2023-01-30T06:50:24;26.63;;;2.87;;
38615;SDS011;24370;51.986;4.666;2023-01-30T06:52:52;37.03;;;3.33;;
38615;SDS011;24370;51.986;4.666;2023-01-30T06:55:19;23.33;;;3.10;;
38615;SDS011;24370;51.986;4.666;2023-01-30T06:57:47;16.67;;;2.20;;
38615;SDS011;24370;51.986;4.666;2023-01-30T07:00:13;24.70;;;3.37;;
38615;SDS011;24370;51.986;4.666;2023-01-30T07:02:43;23.03;;;2.83;;
38615;SDS011;24370;51.986;4.666;2023-01-30T07:05:09;13.30;;;1.70;;
38615;SDS011;24370;51.986;4.666;2023-01-30T07:07:35;27.03;;;3.33;;
38615;SDS011;24370;51.986;4.666;2023-01-30T07:10:02;22.77;;;2.70;;
38615;SDS011;24370;51.986;4.666;2023-01-30T07:12:28;14.60;;;2.60;;
38615;SDS011;24370;51.986;4.666;2023-01-30T07:14:54;17.30;;;3.30;;
38615;SDS011;24370;51.986;4.666;2023-01-30T07:17:19;25.67;;;3.77;;
38615;SDS011;24370;51.986;4.666;2023-01-30T07:19:46;17.83;;;4.13;;
38615;SDS011;24370;51.986;4.666;2023-01-30T07:22:11;13.90;;;2.10;;
38615;SDS011;24370;51.986;4.666;2023-01-30T07:24:37;10.57;;;2.23;;
38615;SDS011;24370;51.986;4.666;2023-01-30T07:27:05;16.37;;;2.53;;
38615;SDS011;24370;51.986;4.666;2023-01-30T07:29:33;18.07;;;3.00;;
38615;SDS011;24370;51.986;4.666;2023-01-30T07:31:59;19.80;;;2.83;;
38615;SDS011;24370;51.986;4.666;2023-01-30T07:34:24;20.83;;;4.87;;
38615;SDS011;24370;51.986;4.666;2023-01-30T07:36:49;19.00;;;3.83;;
38615;SDS011;24370;51.986;4.666;2023-01-30T07:39:15;20.40;;;2.23;;
38615;SDS011;24370;51.986;4.666;2023-01-30T07:41:40;23.37;;;3.50;;
38615;SDS011;24370;51.986;4.666;2023-01-30T07:44:05;18.40;;;2.43;;
38615;SDS011;24370;51.986;4.666;2023-01-30T07:46:31;17.40;;;3.23;;
38615;SDS011;24370;51.986;4.666;2023-01-30T07:49:05;22.43;;;3.07;;
38615;SDS011;24370;51.986;4.666;2023-01-30T07:51:33;17.77;;;2.57;;
38615;SDS011;24370;51.986;4.666;2023-01-30T07:53:58;14.57;;;2.37;;
38615;SDS011;24370;51.986;4.666;2023-01-30T07:56:24;17.10;;;2.33;;
38615;SDS011;24370;51.986;4.666;2023-01-30T07:58:50;23.57;;;2.97;;
38615;SDS011;24370;51.986;4.666;2023-01-30T08:01:16;17.50;;;2.60;;
38615;SDS011;24370;51.986;4.666;2023-01-30T08:03:42;22.03;;;2.70;;
38615;SDS011;24370;51.986;4.666;2023-01-30T08:06:09;21.27;;;2.87;;
38615;SDS011;24370;51.986;4.666;2023-01-30T08:08:36;14.87;;;2.73;;
38615;SDS011;24370;51.986;4.666;2023-01-30T08:11:02;11.40;;;2.67;;
38615;SDS011;24370;51.986;4.666;2023-01-30T08:13:27;19.20;;;2.73;;
38615;SDS011;24370;51.986;4.666;2023-01-30T08:15:53;14.47;;;2.20;;
38615;SDS011;24370;51.986;4.666;2023-01-30T08:18:18;19.90;;;2.97;;
38615;SDS011;24370;51.986;4.666;2023-01-30T08:20:44;15.07;;;3.07;;
38615;SDS011;24370;51.986;4.666;2023-01-30T08:23:09;20.37;;;3.47;;
38615;SDS011;24370;51.986;4.666;2023-01-30T08:25:35;11.43;;;1.47;;
38615;SDS011;24370;51.986;4.666;2023-01-30T08:28:00;21.20;;;3.33;;
38615;SDS011;24370;51.986;4.666;2023-01-30T08:30:27;18.33;;;2.13;;
38615;SDS011;24370;51.986;4.666;2023-01-30T08:32:54;23.40;;;3.03;;
38615;SDS011;24370;51.986;4.666;2023-01-30T08:35:19;17.90;;;2.57;;
38615;SDS011;24370;51.986;4.666;2023-01-30T08:37:45;20.03;;;2.97;;
38615;SDS011;24370;51.986;4.666;2023-01-30T08:40:10;19.90;;;3.43;;
38615;SDS011;24370;51.986;4.666;2023-01-30T08:42:36;18.07;;;3.60;;
38615;SDS011;24370;51.986;4.666;2023-01-30T08:45:01;18.07;;;2.77;;
38615;SDS011;24370;51.986;4.666;2023-01-30T08:47:27;21.10;;;2.80;;
38615;SDS011;24370;51.986;4.666;2023-01-30T08:49:52;17.37;;;3.53;;
38615;SDS011;24370;51.986;4.666;2023-01-30T08:52:18;14.33;;;2.20;;
38615;SDS011;24370;51.986;4.666;2023-01-30T08:54:44;24.10;;;2.83;;
38615;SDS011;24370;51.986;4.666;2023-01-30T08:57:10;10.97;;;2.40;;
38615;SDS011;24370;51.986;4.666;2023-01-30T08:59:35;17.63;;;2.57;;
38615;SDS011;24370;51.986;4.666;2023-01-30T09:02:01;19.07;;;2.40;;
38615;SDS011;24370;51.986;4.666;2023-01-30T09:04:29;18.13;;;2.57;;
38615;SDS011;24370;51.986;4.666;2023-01-30T09:06:55;12.33;;;2.17;;
38615;SDS011;24370;51.986;4.666;2023-01-30T09:09:20;14.03;;;2.90;;
38615;SDS011;24370;51.986;4.666;2023-01-30T09:11:45;18.13;;;3.63;;
38615;SDS011;24370;51.986;4.666;2023-01-30T09:14:14;16.23;;;2.20;;
38615;SDS011;24370;51.986;4.666;2023-01-30T09:16:47;15.40;;;3.13;;
38615;SDS011;24370;51.986;4.666;2023-01-30T09:19:19;15.07;;;2.53;;
38615;SDS011;24370;51.986;4.666;2023-01-30T09:21:51;18.02;;;3.80;;
38615;SDS011;24370;51.986;4.666;2023-01-30T09:24:18;17.60;;;2.47;;
38615;SDS011;24370;51.986;4.666;2023-01-30T09:26:44;19.20;;;2.17;;
38615;SDS011;24370;51.986;4.666;2023-01-30T09:29:10;21.87;;;2.80;;
38615;SDS011;24370;51.986;4.666;2023-01-30T09:31:37;20.83;;;2.70;;
38615;SDS011;24370;51.986;4.666;2023-01-30T09:34:03;16.37;;;2.60;;
38615;SDS011;24370;51.986;4.666;2023-01-30T09:36:28;24.07;;;3.37;;
38615;SDS011;24370;51.986;4.666;2023-01-30T09:38:54;10.30;;;2.30;;
38615;SDS011;24370;51.986;4.666;2023-01-30T09:55:54;25.43;;;7.47;;
38615;SDS011;24370;51.986;4.666;2023-01-30T09:58:22;10.53;;;3.27;;
38615;SDS011;24370;51.986;4.666;2023-01-30T10:00:52;23.33;;;4.60;;
38615;SDS011;24370;51.986;4.666;2023-01-30T10:03:41;27.33;;;5.50;;
38615;SDS011;24370;51.986;4.666;2023-01-30T10:06:32;21.43;;;3.57;;
38615;SDS011;24370;51.986;4.666;2023-01-30T10:09:10;16.37;;;2.83;;
38615;SDS011;24370;51.986;4.666;2023-01-30T10:17:30;22.10;;;3.47;;
38615;SDS011;24370;51.986;4.666;2023-01-30T10:20:15;19.30;;;2.20;;
38615;SDS011;24370;51.986;4.666;2023-01-30T10:28:24;28.00;;;3.07;;
38615;SDS011;24370;51.986;4.666;2023-01-30T10:31:15;30.13;;;2.47;;
38615;SDS011;24370;51.986;4.666;2023-01-30T10:33:43;25.70;;;3.20;;
38615;SDS011;24370;51.986;4.666;2023-01-30T10:36:45;13.83;;;1.77;;
38615;SDS011;24370;51.986;4.666;2023-01-30T10:39:19;19.73;;;2.77;;
38615;SDS011;24370;51.986;4.666;2023-01-30T10:44:31;19.73;;;2.63;;
38615;SDS011;24370;51.986;4.666;2023-01-30T10:47:01;17.57;;;3.17;;
38615;SDS011;24370;51.986;4.666;2023-01-30T10:49:44;13.40;;;3.20;;
38615;SDS011;24370;51.986;4.666;2023-01-30T10:52:21;14.95;;;2.70;;
38615;SDS011;24370;51.986;4.666;2023-01-30T10:58:09;21.30;;;3.77;;
38615;SDS011;24370;51.986;4.666;2023-01-30T11:00:41;21.77;;;2.87;;
38615;SDS011;24370;51.986;4.666;2023-01-30T11:06:16;21.07;;;2.77;;
38615;SDS011;24370;51.986;4.666;2023-01-30T11:08:47;26.53;;;3.63;;
38615;SDS011;24370;51.986;4.666;2023-01-30T11:11:34;15.37;;;2.53;;
38615;SDS011;24370;51.986;4.666;2023-01-30T11:14:07;33.80;;;4.10;;
38615;SDS011;24370;51.986;4.666;2023-01-30T11:16:45;12.97;;;3.00;;
38615;SDS011;24370;51.986;4.666;2023-01-30T11:19:13;23.83;;;3.67;;
38615;SDS011;24370;51.986;4.666;2023-01-30T11:21:40;15.90;;;3.03;;
38615;SDS011;24370;51.986;4.666;2023-01-30T11:24:17;23.00;;;3.10;;
38615;SDS011;24370;51.986;4.666;2023-01-30T11:26:44;22.50;;;2.90;;
38615;SDS011;24370;51.986;4.666;2023-01-30T11:32:10;25.87;;;3.23;;
38615;SDS011;24370;51.986;4.666;2023-01-30T11:37:26;13.47;;;2.53;;
38615;SDS011;24370;51.986;4.666;2023-01-30T11:39:55;18.90;;;2.77;;
38615;SDS011;24370;51.986;4.666;2023-01-30T11:42:23;22.87;;;2.80;;
38615;SDS011;24370;51.986;4.666;2023-01-30T11:44:54;24.48;;;3.97;;
38615;SDS011;24370;51.986;4.666;2023-01-30T11:47:23;19.10;;;4.93;;
38615;SDS011;24370;51.986;4.666;2023-01-30T11:49:51;24.83;;;4.43;;
38615;SDS011;24370;51.986;4.666;2023-01-30T11:52:33;31.30;;;3.90;;
38615;SDS011;24370;51.986;4.666;2023-01-30T11:55:02;38.67;;;5.73;;
38615;SDS011;24370;51.986;4.666;2023-01-30T11:57:42;20.67;;;3.60;;
38615;SDS011;24370;51.986;4.666;2023-01-30T12:00:21;52.67;;;14.93;;
38615;SDS011;24370;51.986;4.666;2023-01-30T12:02:49;24.07;;;4.90;;
38615;SDS011;24370;51.986;4.666;2023-01-30T12:05:23;36.47;;;9.00;;
38615;SDS011;24370;51.986;4.666;2023-01-30T12:07:49;23.70;;;4.63;;
38615;SDS011;24370;51.986;4.666;2023-01-30T12:10:29;31.00;;;4.80;;
38615;SDS011;24370;51.986;4.666;2023-01-30T12:13:01;15.40;;;2.73;;
38615;SDS011;24370;51.986;4.666;2023-01-30T12:15:56;21.70;;;3.50;;
38615;SDS011;24370;51.986;4.666;2023-01-30T12:18:50;24.23;;;3.77;;
38615;SDS011;24370;51.986;4.666;2023-01-30T12:23:52;8.13;;;2.13;;
38615;SDS011;24370;51.986;4.666;2023-01-30T12:26:45;29.97;;;3.00;;
38615;SDS011;24370;51.986;4.666;2023-01-30T12:29:25;18.80;;;3.47;;
38615;SDS011;24370;51.986;4.666;2023-01-30T12:34:40;17.37;;;2.33;;
38615;SDS011;24370;51.986;4.666;2023-01-30T12:40:00;23.33;;;3.40;;
38615;SDS011;24370;51.986;4.666;2023-01-30T12:50:55;27.55;;;3.60;;
38615;SDS011;24370;51.986;4.666;2023-01-30T12:53:47;20.70;;;3.53;;
38615;SDS011;24370;51.986;4.666;2023-01-30T13:02:05;19.83;;;3.43;;
38615;SDS011;24370;51.986;4.666;2023-01-30T13:05:05;21.73;;;3.73;;
38615;SDS011;24370;51.986;4.666;2023-01-30T13:13:14;21.27;;;3.00;;
38615;SDS011;24370;51.986;4.666;2023-01-30T13:15:49;27.23;;;3.40;;
38615;SDS011;24370;51.986;4.666;2023-01-30T13:18:33;22.38;;;3.50;;
38615;SDS011;24370;51.986;4.666;2023-01-30T13:21:10;18.43;;;2.93;;
38615;SDS011;24370;51.986;4.666;2023-01-30T13:24:04;18.43;;;2.80;;
38615;SDS011;24370;51.986;4.666;2023-01-30T13:26:47;28.53;;;4.57;;
38615;SDS011;24370;51.986;4.666;2023-01-30T13:32:02;17.10;;;3.23;;
38615;SDS011;24370;51.986;4.666;2023-01-30T13:34:31;26.30;;;2.50;;
38615;SDS011;24370;51.986;4.666;2023-01-30T13:37:01;17.33;;;2.80;;
38615;SDS011;24370;51.986;4.666;2023-01-30T13:39:32;17.33;;;2.50;;
38615;SDS011;24370;51.986;4.666;2023-01-30T13:41:58;14.87;;;3.07;;
38615;SDS011;24370;51.986;4.666;2023-01-30T13:44:29;29.47;;;3.60;;
38615;SDS011;24370;51.986;4.666;2023-01-30T13:46:58;26.40;;;3.77;;
38615;SDS011;24370;51.986;4.666;2023-01-30T13:52:32;19.40;;;2.63;;
38615;SDS011;24370;51.986;4.666;2023-01-30T14:00:28;25.90;;;4.00;;
38615;SDS011;24370;51.986;4.666;2023-01-30T14:03:13;25.70;;;3.90;;
38615;SDS011;24370;51.986;4.666;2023-01-30T14:08:28;32.13;;;5.00;;
38615;SDS011;24370;51.986;4.666;2023-01-30T14:10:59;24.30;;;4.67;;
38615;SDS011;24370;51.986;4.666;2023-01-30T14:13:26;33.60;;;8.33;;
38615;SDS011;24370;51.986;4.666;2023-01-30T14:15:59;24.17;;;3.80;;
38615;SDS011;24370;51.986;4.666;2023-01-30T14:18:34;27.27;;;5.37;;
38615;SDS011;24370;51.986;4.666;2023-01-30T14:21:15;17.00;;;4.43;;
38615;SDS011;24370;51.986;4.666;2023-01-30T14:24:00;16.47;;;4.40;;
38615;SDS011;24370;51.986;4.666;2023-01-30T14:29:48;25.60;;;3.43;;
38615;SDS011;24370;51.986;4.666;2023-01-30T14:34:39;30.27;;;4.27;;
38615;SDS011;24370;51.986;4.666;2023-01-30T14:40:02;32.45;;;3.75;;
38615;SDS011;24370;51.986;4.666;2023-01-30T14:53:50;25.17;;;4.07;;
38615;SDS011;24370;51.986;4.666;2023-01-30T14:56:21;29.30;;;3.72;;
38615;SDS011;24370;51.986;4.666;2023-01-30T15:04:45;26.83;;;2.77;;
38615;SDS011;24370;51.986;4.666;2023-01-30T15:09:53;41.90;;;5.43;;
38615;SDS011;24370;51.986;4.666;2023-01-30T15:28:49;28.50;;;4.50;;
38615;SDS011;24370;51.986;4.666;2023-01-30T15:31:17;30.70;;;5.53;;
38615;SDS011;24370;51.986;4.666;2023-01-30T15:33:48;28.07;;;3.80;;
38615;SDS011;24370;51.986;4.666;2023-01-30T15:36:22;24.33;;;4.80;;
38615;SDS011;24370;51.986;4.666;2023-01-30T15:39:13;38.40;;;3.60;;
38615;SDS011;24370;51.986;4.666;2023-01-30T15:41:43;29.27;;;3.60;;
38615;SDS011;24370;51.986;4.666;2023-01-30T15:49:46;23.73;;;3.67;;
38615;SDS011;24370;51.986;4.666;2023-01-30T15:52:15;25.73;;;3.37;;
38615;SDS011;24370;51.986;4.666;2023-01-30T15:54:47;28.27;;;3.87;;
38615;SDS011;24370;51.986;4.666;2023-01-30T15:57:16;44.70;;;5.00;;
38615;SDS011;24370;51.986;4.666;2023-01-30T15:59:47;34.00;;;5.20;;
38615;SDS011;24370;51.986;4.666;2023-01-30T16:02:14;33.37;;;5.27;;
38615;SDS011;24370;51.986;4.666;2023-01-30T16:04:44;28.67;;;5.53;;
38615;SDS011;24370;51.986;4.666;2023-01-30T16:07:13;32.33;;;4.37;;
38615;SDS011;24370;51.986;4.666;2023-01-30T16:09:40;25.77;;;3.40;;
38615;SDS011;24370;51.986;4.666;2023-01-30T16:12:21;39.50;;;5.07;;
38615;SDS011;24370;51.986;4.666;2023-01-30T16:14:47;39.33;;;7.23;;
38615;SDS011;24370;51.986;4.666;2023-01-30T16:17:13;36.20;;;4.70;;
38615;SDS011;24370;51.986;4.666;2023-01-30T16:19:39;39.80;;;8.00;;
38615;SDS011;24370;51.986;4.666;2023-01-30T16:22:05;57.37;;;12.50;;
38615;SDS011;24370;51.986;4.666;2023-01-30T16:24:44;47.83;;;7.57;;
38615;SDS011;24370;51.986;4.666;2023-01-30T16:27:32;36.47;;;4.97;;
38615;SDS011;24370;51.986;4.666;2023-01-30T16:30:00;30.50;;;4.53;;
38615;SDS011;24370;51.986;4.666;2023-01-30T16:32:33;33.07;;;4.50;;
38615;SDS011;24370;51.986;4.666;2023-01-30T16:37:47;25.40;;;3.67;;
38615;SDS011;24370;51.986;4.666;2023-01-30T16:40:14;32.30;;;4.20;;
38615;SDS011;24370;51.986;4.666;2023-01-30T16:50:49;24.70;;;3.20;;
38615;SDS011;24370;51.986;4.666;2023-01-30T16:53:25;31.73;;;4.70;;
38615;SDS011;24370;51.986;4.666;2023-01-30T16:58:28;13.87;;;2.67;;
38615;SDS011;24370;51.986;4.666;2023-01-30T17:00:56;20.80;;;3.93;;
38615;SDS011;24370;51.986;4.666;2023-01-30T17:03:26;27.83;;;3.20;;
38615;SDS011;24370;51.986;4.666;2023-01-30T17:05:56;25.87;;;3.10;;
38615;SDS011;24370;51.986;4.666;2023-01-30T17:11:03;27.73;;;4.20;;
38615;SDS011;24370;51.986;4.666;2023-01-30T17:16:18;28.83;;;4.20;;
38615;SDS011;24370;51.986;4.666;2023-01-30T17:18:53;34.60;;;5.00;;
38615;SDS011;24370;51.986;4.666;2023-01-30T17:21:24;30.30;;;4.27;;
38615;SDS011;24370;51.986;4.666;2023-01-30T17:24:01;29.60;;;4.43;;
38615;SDS011;24370;51.986;4.666;2023-01-30T17:26:28;37.70;;;4.83;;
38615;SDS011;24370;51.986;4.666;2023-01-30T17:28:55;47.37;;;6.90;;
38615;SDS011;24370;51.986;4.666;2023-01-30T17:31:20;39.17;;;7.83;;
38615;SDS011;24370;51.986;4.666;2023-01-30T17:33:46;31.80;;;6.90;;
38615;SDS011;24370;51.986;4.666;2023-01-30T17:36:25;25.57;;;5.40;;
38615;SDS011;24370;51.986;4.666;2023-01-30T17:38:52;36.17;;;7.40;;
38615;SDS011;24370;51.986;4.666;2023-01-30T17:41:22;33.63;;;5.73;;
38615;SDS011;24370;51.986;4.666;2023-01-30T17:43:49;39.73;;;6.63;;
38615;SDS011;24370;51.986;4.666;2023-01-30T17:46:15;39.77;;;8.10;;
38615;SDS011;24370;51.986;4.666;2023-01-30T17:48:41;36.63;;;5.27;;
38615;SDS011;24370;51.986;4.666;2023-01-30T17:51:07;26.80;;;4.30;;
38615;SDS011;24370;51.986;4.666;2023-01-30T17:53:32;39.83;;;4.77;;
38615;SDS011;24370;51.986;4.666;2023-01-30T17:55:58;23.53;;;4.17;;
38615;SDS011;24370;51.986;4.666;2023-01-30T17:58:24;43.50;;;6.73;;